Time;durP1;ratioP1;P1;durP2;ratioP2;P2;SDS_P1;SDS_P2;PMS_P1;PMS_P2;Temp;Humidity;BMP_temperature;BMP_pressure;BME280_temperature;BME280_humidity;BME280_pressure;Samples;Min_cycle;Max_cycle;Signal;HPM_P1;HPM_P2
2022/12/10 00:02:05;;;;;;;73.40;41.70;;;;;;;1.18;89.72;99566.77;103316;1313;80397;-57
2022/12/10 00:04:38;;;;;;;72.00;40.30;;;;;;;1.23;89.72;99562.60;103372;1317;82815;-60
2022/12/10 00:07:12;;;;;;;68.70;39.50;;;;;;;1.25;89.62;99562.20;103545;1317;97228;-60
2022/12/10 00:09:46;;;;;;;70.90;41.80;;;;;;;1.27;89.76;99560.57;103391;1317;88764;-57
2022/12/10 00:12:20;;;;;;;72.30;40.70;;;;;;;1.25;89.58;99556.94;103355;1317;96048;-58
2022/12/10 00:14:54;;;;;;;59.70;33.20;;;;;;;1.28;89.54;99558.17;103546;1317;78610;-60
2022/12/10 00:17:27;;;;;;;73.40;39.70;;;;;;;1.28;89.54;99556.41;103354;1317;82354;-61
2022/12/10 00:20:01;;;;;;;71.30;40.80;;;;;;;1.27;89.51;99561.48;103337;1313;98279;-57
2022/12/10 00:22:36;;;;;;;71.90;40.50;;;;;;;1.25;89.68;99557.30;103380;1320;86186;-57
2022/12/10 00:25:11;;;;;;;71.10;40.70;;;;;;;1.29;89.61;99558.80;103340;1317;95467;-59
2022/12/10 00:27:44;;;;;;;71.70;40.60;;;;;;;1.33;89.51;99557.17;103352;1313;80076;-59
2022/12/10 00:30:18;;;;;;;73.70;42.80;;;;;;;1.33;89.40;99561.80;103353;1314;82316;-60
2022/12/10 00:32:53;;;;;;;71.30;38.20;;;;;;;1.32;89.37;99557.10;103355;1317;98389;-59
2022/12/10 00:35:26;;;;;;;74.90;42.50;;;;;;;1.20;89.54;99551.92;103348;1313;88967;-60
2022/12/10 00:38:00;;;;;;;67.20;38.80;;;;;;;1.15;89.64;99549.05;103345;1317;95005;-58
2022/12/10 00:40:35;;;;;;;68.90;40.20;;;;;;;1.12;89.67;99556.27;103575;1317;80417;-59
2022/12/10 00:43:09;;;;;;;73.10;40.30;;;;;;;1.15;89.53;99557.66;103368;1314;81329;-58
2022/12/10 00:45:43;;;;;;;70.80;39.10;;;;;;;1.18;89.50;99552.27;103530;1314;98862;-57
2022/12/10 00:48:16;;;;;;;72.60;40.60;;;;;;;1.14;89.61;99556.92;103552;1318;86501;-57
2022/12/10 00:51:00;;;;;;;52.50;30.20;;;;;;;1.11;89.55;99559.66;103363;1317;95005;-57
2022/12/10 00:53:35;;;;;;;72.60;38.80;;;;;;;1.07;89.71;99560.60;103531;1314;80666;-57
2022/12/10 00:56:12;;;;;;;70.90;39.60;;;;;;;1.07;89.66;99559.56;103365;1313;82671;-57
2022/12/10 00:58:46;;;;;;;65.10;37.00;;;;;;;1.09;89.67;99558.68;103344;1313;99233;-60
2022/12/10 01:01:22;;;;;;;68.30;38.20;;;;;;;1.12;89.62;99561.59;103560;1318;85846;-60
2022/12/10 01:04:00;;;;;;;72.50;40.50;;;;;;;1.15;89.78;99563.02;103347;1314;95070;-60
2022/12/10 01:06:36;;;;;;;72.80;38.90;;;;;;;1.19;89.54;99558.71;103318;1316;81127;-60
2022/12/10 01:09:12;;;;;;;73.70;40.20;;;;;;;1.16;89.70;99556.52;103351;1314;82666;-57
2022/12/10 01:11:49;;;;;;;74.80;40.40;;;;;;;1.18;89.54;99553.84;103520;1317;98676;-57
2022/12/10 01:14:25;;;;;;;69.00;40.40;;;;;;;1.16;89.59;99556.01;103551;1314;87808;-59
2022/12/10 01:17:02;;;;;;;73.60;40.50;;;;;;;1.16;89.67;99554.92;103512;1317;93354;-59
2022/12/10 01:19:36;;;;;;;69.40;39.60;;;;;;;1.19;89.59;99557.86;103326;1317;81648;-59
2022/12/10 01:22:09;;;;;;;;;;;;;;;1.23;89.55;99559.05;103392;1314;81370;-59
2022/12/10 01:24:42;;;;;;;72.40;40.00;;;;;;;1.21;89.66;99550.55;103389;1317;99922;-58
2022/12/10 01:27:16;;;;;;;73.90;40.40;;;;;;;1.23;89.71;99548.56;103387;1317;87195;-58
2022/12/10 01:29:50;;;;;;;70.20;38.50;;;;;;;1.26;89.62;99550.77;103369;1317;94188;-61
2022/12/10 01:32:23;;;;;;;68.80;39.00;;;;;;;1.27;89.61;99548.02;103365;1317;80484;-61
2022/12/10 01:34:57;;;;;;;71.40;41.20;;;;;;;1.24;89.80;99550.64;103568;1314;80726;-59
2022/12/10 01:37:31;;;;;;;71.50;39.90;;;;;;;1.18;89.73;99547.10;103550;1317;98629;-59
2022/12/10 01:40:06;;;;;;;71.50;40.60;;;;;;;1.22;89.78;99537.35;103369;1317;90123;-60
2022/12/10 01:42:40;;;;;;;67.80;38.80;;;;;;;1.23;89.87;99532.61;103354;1314;97065;-60
2022/12/10 01:45:15;;;;;;;77.60;41.30;;;;;;;1.19;89.80;99528.55;103343;1314;81383;-57
2022/12/10 01:47:50;;;;;;;75.70;40.80;;;;;;;1.19;89.82;99526.79;103369;1314;82695;-57
2022/12/10 01:50:22;;;;;;;;;;;;;;;1.19;89.79;99526.45;103555;1318;97335;-60
2022/12/10 01:52:56;;;;;;;77.60;40.80;;;;;;;1.21;89.85;99522.86;103337;1317;87500;-59
2022/12/10 01:55:51;;;;;;;78.30;42.00;;;;;;;1.28;89.74;99521.65;103342;1317;94173;-61
2022/12/10 01:58:25;;;;;;;70.80;38.40;;;;;;;1.32;89.80;99519.83;103347;1317;81612;-61
2022/12/10 02:01:09;;;;;;;70.50;39.70;;;;;;;1.32;89.80;99516.66;103345;1317;81955;-60
2022/12/10 02:03:53;;;;;;;;;;;;;;;1.31;89.77;99519.05;103383;1317;99329;-61
2022/12/10 02:06:41;;;;;;;76.00;39.00;;;;;;;1.30;89.75;99528.70;103531;1317;86582;-61
2022/12/10 02:09:24;;;;;;;76.90;41.10;;;;;;;1.32;89.87;99529.44;103359;1317;94963;-59
2022/12/10 02:12:11;;;;;;;71.30;39.30;;;;;;;1.35;89.83;99533.38;103331;1317;81478;-59
2022/12/10 02:14:55;;;;;;;71.40;39.80;;;;;;;1.37;89.64;99532.95;103344;1313;83492;-58
2022/12/10 02:17:35;;;;;;;70.50;39.70;;;;;;;1.36;89.65;99531.14;103317;1317;100537;-61
2022/12/10 02:20:17;;;;;;;69.20;39.70;;;;;;;1.39;89.60;99534.89;103336;1317;87873;-58
2022/12/10 02:22:58;;;;;;;70.40;38.60;;;;;;;1.39;89.71;99534.73;103521;1317;92446;-58
2022/12/10 02:25:40;;;;;;;72.80;38.50;;;;;;;1.36;89.70;99532.40;103338;1317;81578;-61
2022/12/10 02:28:23;;;;;;;71.40;39.10;;;;;;;1.35;89.66;99526.27;103545;1317;81171;-60
2022/12/10 02:30:59;;;;;;;70.70;38.70;;;;;;;1.36;89.62;99523.33;103299;1320;98906;-61
2022/12/10 02:33:34;;;;;;;76.30;40.00;;;;;;;1.35;89.64;99524.00;103352;1317;89302;-58
2022/12/10 02:36:11;;;;;;;69.40;38.70;;;;;;;1.36;89.58;99534.84;103346;1314;94362;-58
2022/12/10 02:38:48;;;;;;;68.30;38.40;;;;;;;1.37;89.68;99540.42;103554;1317;79931;-59
2022/12/10 02:41:29;;;;;;;67.40;35.50;;;;;;;1.40;89.68;99540.45;103344;1317;82744;-59
2022/12/10 02:44:05;;;;;;;65.40;35.70;;;;;;;1.37;89.64;99539.92;103337;1313;100099;-57
2022/12/10 02:46:41;;;;;;;67.60;36.00;;;;;;;1.35;89.75;99532.98;103314;1317;89065;-57
2022/12/10 02:49:17;;;;;;;66.00;35.90;;;;;;;1.34;89.68;99533.25;103524;1317;94956;-60
2022/12/10 02:51:51;;;;;;;64.30;37.00;;;;;;;1.33;89.72;99533.70;103327;1313;81106;-61
2022/12/10 02:54:44;;;;;;;66.80;37.10;;;;;;;1.35;89.81;99535.84;103588;1315;81047;-60
2022/12/10 02:57:31;;;;;;;68.50;36.40;;;;;;;1.33;89.66;99537.83;103561;1314;96954;-61
2022/12/10 03:00:18;;;;;;;67.60;35.20;;;;;;;1.32;89.61;99541.08;103367;1317;89013;-57
2022/12/10 03:03:22;;;;;;;68.80;37.00;;;;;;;1.32;89.81;99542.73;103571;1318;92686;-58
2022/12/10 03:06:06;;;;;;;70.40;37.40;;;;;;;1.27;89.65;99543.75;103393;1317;79188;-57
2022/12/10 03:08:48;;;;;;;70.40;37.80;;;;;;;1.29;89.76;99539.33;103202;1316;82009;-57
2022/12/10 03:11:24;;;;;;;72.40;38.80;;;;;;;1.28;89.78;99531.79;103364;1313;99148;-57
2022/12/10 03:14:05;;;;;;;64.20;35.70;;;;;;;1.25;89.77;99528.31;103379;1314;88074;-58
2022/12/10 03:16:45;;;;;;;70.40;37.20;;;;;;;1.29;89.72;99527.05;103344;1317;94970;-58
2022/12/10 03:19:22;;;;;;;65.10;36.80;;;;;;;1.32;89.63;99526.95;103348;1314;81075;-58
2022/12/10 03:21:57;;;;;;;70.10;37.40;;;;;;;1.35;89.71;99532.15;103342;1317;81811;-58
2022/12/10 03:24:33;;;;;;;66.50;35.50;;;;;;;1.37;89.69;99534.02;103354;1317;99847;-60
2022/12/10 03:27:10;;;;;;;69.10;35.50;;;;;;;1.33;89.85;99534.93;103340;1317;87708;-59
2022/12/10 03:29:49;;;;;;;65.60;35.70;;;;;;;1.28;89.94;99535.55;103367;1314;95210;-59
2022/12/10 03:32:26;;;;;;;68.00;35.80;;;;;;;1.21;89.90;99531.42;103358;1317;81723;-59
2022/12/10 03:35:02;;;;;;;65.40;37.20;;;;;;;1.23;89.97;99536.14;103547;1317;81632;-61
2022/12/10 03:37:36;;;;;;;67.60;35.90;;;;;;;1.27;89.86;99536.86;103380;1317;98698;-61
2022/12/10 03:40:12;;;;;;;;;;;;;;;1.29;89.82;99533.66;103379;1313;87798;-59
2022/12/10 03:42:46;;;;;;;67.00;35.00;;;;;;;1.29;89.96;99528.28;103355;1317;95343;-59
2022/12/10 03:45:20;;;;;;;67.30;36.20;;;;;;;1.29;89.96;99531.51;103376;1317;80150;-61
2022/12/10 03:47:54;;;;;;;69.70;36.60;;;;;;;1.31;89.98;99534.71;103368;1317;82607;-59
2022/12/10 03:50:27;;;;;;;72.00;36.20;;;;;;;1.23;90.00;99535.78;103549;1317;98805;-59
2022/12/10 03:53:01;;;;;;;67.60;34.50;;;;;;;1.25;90.05;99535.82;103358;1317;88397;-58
2022/12/10 03:55:35;;;;;;;64.70;34.90;;;;;;;1.25;89.90;99535.02;103348;1314;94595;-58
2022/12/10 03:58:09;;;;;;;70.40;35.50;;;;;;;1.25;89.92;99537.35;103361;1314;80108;-61
2022/12/10 04:00:43;;;;;;;64.90;34.00;;;;;;;1.26;89.95;99535.87;103348;1317;82417;-61
2022/12/10 04:03:17;;;;;;;67.00;36.00;;;;;;;1.25;89.90;99536.48;103355;1313;99712;-61
2022/12/10 04:05:50;;;;;;;63.00;33.80;;;;;;;1.26;90.06;99538.20;103514;1317;85936;-61
2022/12/10 04:08:24;;;;;;;73.10;35.60;;;;;;;1.22;89.92;99537.35;103362;1317;94374;-61
2022/12/10 04:11:05;;;;;;;65.70;34.70;;;;;;;1.16;89.90;99534.84;103558;1317;80254;-61
2022/12/10 04:16:33;;;;;;;67.30;33.00;;;;;;;1.23;89.90;99535.46;103340;1313;99215;-59
2022/12/10 04:19:10;;;;;;;63.80;32.60;;;;;;;1.25;89.71;99537.94;103348;1314;89386;-61
2022/12/10 04:27:32;;;;;;;63.50;34.90;;;;;;;1.23;89.85;99538.79;103391;1313;83411;-58
2022/12/10 04:30:08;;;;;;;62.40;33.70;;;;;;;1.17;89.93;99539.27;103359;1317;99925;-59
2022/12/10 04:32:42;;;;;;;59.90;32.10;;;;;;;1.20;89.83;99542.86;103374;1313;89028;-60
2022/12/10 04:35:16;;;;;;;69.40;34.80;;;;;;;1.20;89.86;99544.48;103344;1317;93136;-59
2022/12/10 04:37:50;;;;;;;67.90;33.90;;;;;;;1.27;89.89;99547.50;103360;1314;81060;-59
2022/12/10 04:40:24;;;;;;;69.20;33.30;;;;;;;1.28;89.80;99545.92;103367;1317;82909;-58
2022/12/10 04:42:58;;;;;;;70.50;33.70;;;;;;;1.23;89.90;99546.80;103351;1317;99696;-59
2022/12/10 04:45:34;;;;;;;71.20;36.10;;;;;;;1.21;89.92;99542.20;103389;1317;88153;-59
2022/12/10 04:48:09;;;;;;;74.10;37.40;;;;;;;1.24;89.92;99545.82;103346;1317;95493;-59
2022/12/10 04:50:42;;;;;;;65.90;31.80;;;;;;;1.25;89.82;99545.20;103340;1317;80882;-59
2022/12/10 04:53:16;;;;;;;62.50;32.10;;;;;;;1.25;89.98;99544.30;103539;1318;80307;-61
2022/12/10 04:55:50;;;;;;;69.20;33.70;;;;;;;1.24;89.99;99543.56;103356;1317;99392;-61
2022/12/10 04:58:24;;;;;;;73.40;34.20;;;;;;;1.27;89.83;99541.42;103372;1313;89293;-59
2022/12/10 05:01:03;;;;;;;65.50;32.60;;;;;;;1.26;89.86;99542.22;103352;1317;94926;-59
2022/12/10 05:03:38;;;;;;;65.70;32.20;;;;;;;1.19;89.97;99545.38;103343;1317;81774;-60
2022/12/10 05:06:15;;;;;;;68.10;31.90;;;;;;;1.17;90.04;99550.91;103344;1318;82221;-60
2022/12/10 05:08:50;;;;;;;62.20;30.20;;;;;;;1.15;89.91;99551.67;103552;1314;98432;-61
2022/12/10 05:11:26;;;;;;;71.80;32.40;;;;;;;1.13;89.91;99545.14;103328;1318;89435;-61
2022/12/10 05:14:00;;;;;;;69.30;33.20;;;;;;;1.06;89.90;99550.41;103363;1317;96037;-60
2022/12/10 05:16:35;;;;;;;63.80;31.00;;;;;;;1.03;89.99;99551.11;103350;1316;78817;-60
2022/12/10 05:19:11;;;;;;;68.60;32.80;;;;;;;1.02;90.09;99556.45;103332;1317;83679;-59
2022/12/10 05:24:36;;;;;;;69.10;33.80;;;;;;;1.08;89.85;99562.08;103375;1317;87423;-59
2022/12/10 05:27:10;;;;;;;65.10;32.00;;;;;;;1.07;89.97;99560.64;103330;1314;95780;-59
2022/12/10 05:29:44;;;;;;;64.20;31.60;;;;;;;1.09;89.99;99565.90;103364;1317;80466;-58
2022/12/10 05:32:17;;;;;;;64.50;30.60;;;;;;;1.10;90.01;99564.90;103335;1317;81806;-58
2022/12/10 05:34:51;;;;;;;64.70;31.00;;;;;;;1.08;90.08;99570.79;103342;1317;98334;-59
2022/12/10 05:37:25;;;;;;;60.00;30.00;;;;;;;1.04;90.14;99574.73;103304;1320;89635;-59
2022/12/10 05:39:59;;;;;;;59.30;31.00;;;;;;;1.06;90.07;99574.75;103347;1317;94359;-57
2022/12/10 05:42:33;;;;;;;61.60;30.00;;;;;;;1.07;89.90;99581.18;103377;1313;81323;-58
2022/12/10 05:45:09;;;;;;;58.60;28.40;;;;;;;1.03;90.06;99578.90;103579;1318;82208;-58
2022/12/10 05:47:43;;;;;;;54.80;27.50;;;;;;;0.99;90.00;99582.55;103355;1313;99434;-57
2022/12/10 05:50:17;;;;;;;58.10;27.80;;;;;;;1.01;90.01;99581.38;103344;1318;86320;-59
2022/12/10 05:52:52;;;;;;;52.60;26.80;;;;;;;1.03;89.99;99580.33;103267;1321;94063;-58
2022/12/10 05:55:27;;;;;;;46.00;23.70;;;;;;;1.02;89.91;99577.76;103361;1313;81818;-57
2022/12/10 05:58:01;;;;;;;51.40;26.00;;;;;;;0.93;89.84;99575.80;103584;1318;79839;-57
2022/12/10 06:00:35;;;;;;;56.30;27.60;;;;;;;0.97;89.94;99571.89;103547;1313;97388;-57
2022/12/10 06:03:09;;;;;;;51.90;27.20;;;;;;;0.96;89.91;99573.41;103347;1317;89506;-58
2022/12/10 06:05:43;;;;;;;51.30;27.30;;;;;;;1.01;89.78;99576.29;103310;1313;94877;-58
2022/12/10 06:08:16;;;;;;;;;;;;;;;0.94;89.73;99575.91;103350;1317;81240;-59
2022/12/10 06:10:49;;;;;;;48.20;25.70;;;;;;;0.92;89.64;99582.15;103325;1317;80853;-60
2022/12/10 06:13:23;;;;;;;51.60;24.50;;;;;;;0.91;89.76;99589.32;103291;1317;97712;-61
2022/12/10 06:15:57;;;;;;;52.10;26.50;;;;;;;0.93;89.67;99587.59;103362;1317;88701;-57
2022/12/10 06:18:31;;;;;;;54.30;26.80;;;;;;;0.95;89.68;99586.11;103373;1317;95748;-61
2022/12/10 06:21:07;;;;;;;50.00;25.00;;;;;;;0.93;89.69;99584.17;103229;1315;81426;-61
2022/12/10 06:23:42;;;;;;;48.70;24.70;;;;;;;0.95;89.77;99584.63;103226;1318;80612;-61
2022/12/10 06:26:19;;;;;;;50.40;26.20;;;;;;;0.98;89.67;99587.58;103218;1317;98846;-61
2022/12/10 06:28:54;;;;;;;45.50;22.70;;;;;;;0.95;89.71;99591.11;103131;1317;88855;-61
2022/12/10 06:31:28;;;;;;;44.40;23.00;;;;;;;0.95;89.81;99594.23;103040;1319;95447;-61
2022/12/10 06:34:02;;;;;;;44.60;23.00;;;;;;;0.98;89.55;99597.63;103039;1321;81054;-58
2022/12/10 06:36:36;;;;;;;44.50;22.40;;;;;;;0.97;89.58;99602.90;103068;1321;81920;-58
2022/12/10 06:39:11;;;;;;;43.00;22.40;;;;;;;0.95;89.59;99605.91;103216;1317;96833;-60
2022/12/10 06:41:45;;;;;;;;;;;;;;;1.00;89.46;99606.33;103091;1320;88455;-60
2022/12/10 06:44:19;;;;;;;48.90;23.00;;;;;;;1.01;89.63;99609.93;103041;1321;93324;-57
2022/12/10 06:46:53;;;;;;;47.80;23.40;;;;;;;1.01;89.68;99608.19;103205;1321;78365;-57
2022/12/10 06:49:27;;;;;;;45.80;24.20;;;;;;;1.05;89.62;99609.21;103076;1319;82954;-60
2022/12/10 06:52:01;;;;;;;50.50;24.70;;;;;;;1.07;89.58;99611.64;102878;1319;265551;-60
2022/12/10 06:54:36;;;;;;;48.30;23.40;;;;;;;1.06;89.60;99617.61;103056;1317;89203;-59
2022/12/10 06:57:10;;;;;;;51.00;25.30;;;;;;;1.05;89.69;99619.70;103203;1321;92368;-59
2022/12/10 06:59:44;;;;;;;50.40;24.00;;;;;;;1.05;89.68;99621.23;103039;1321;80828;-60
2022/12/10 07:02:18;;;;;;;49.90;25.70;;;;;;;1.07;89.57;99621.21;103244;1317;82399;-60
2022/12/10 07:04:56;;;;;;;54.90;25.10;;;;;;;1.07;89.61;99619.11;103063;1317;99814;-58
2022/12/10 07:07:30;;;;;;;56.20;26.10;;;;;;;1.05;89.67;99615.93;103225;1320;88076;-57
2022/12/10 07:10:04;;;;;;;53.70;26.60;;;;;;;1.07;89.59;99620.23;103057;1317;95403;-58
2022/12/10 07:12:38;;;;;;;54.20;25.80;;;;;;;1.05;89.57;99621.58;103048;1320;81812;-58
2022/12/10 07:15:13;;;;;;;60.70;28.10;;;;;;;1.08;89.65;99619.77;103203;1321;80660;-61
2022/12/10 07:17:47;;;;;;;55.90;27.40;;;;;;;1.05;89.61;99609.55;103055;1320;97231;-61
2022/12/10 07:20:22;;;;;;;54.80;26.60;;;;;;;1.06;89.73;99607.13;103326;1314;87270;-59
2022/12/10 07:22:56;;;;;;;55.30;26.70;;;;;;;1.10;89.72;99611.42;103350;1317;95048;-60
2022/12/10 07:25:30;;;;;;;55.70;27.90;;;;;;;1.13;89.66;99612.49;103350;1317;80810;-61
2022/12/10 07:28:03;;;;;;;57.30;26.90;;;;;;;1.15;89.66;99612.98;103542;1318;80362;-59
2022/12/10 07:30:37;;;;;;;62.10;26.80;;;;;;;1.18;89.66;99613.61;103324;1317;98409;-60
2022/12/10 07:33:12;;;;;;;56.00;26.20;;;;;;;1.18;89.66;99614.31;103379;1317;88761;-57
2022/12/10 07:35:46;;;;;;;56.20;25.80;;;;;;;1.24;89.55;99615.38;103345;1317;95561;-57
2022/12/10 07:38:20;;;;;;;60.40;27.20;;;;;;;1.22;89.64;99613.63;103536;1314;80102;-58
2022/12/10 07:40:54;;;;;;;59.70;27.90;;;;;;;1.22;89.56;99610.56;103373;1317;81721;-59
2022/12/10 07:43:28;;;;;;;58.70;29.20;;;;;;;1.20;89.73;99611.98;103372;1314;99587;-61
2022/12/10 07:46:07;;;;;;;56.40;26.60;;;;;;;1.21;89.68;99613.16;103364;1317;89669;-61
2022/12/10 07:48:43;;;;;;;54.60;28.00;;;;;;;1.20;89.65;99620.69;103339;1314;94658;-61
2022/12/10 07:51:20;;;;;;;56.50;26.90;;;;;;;1.17;89.78;99621.66;103378;1317;81476;-61
2022/12/10 07:53:56;;;;;;;53.70;25.20;;;;;;;1.15;89.61;99622.92;103384;1317;82784;-58
2022/12/10 07:56:30;;;;;;;54.60;27.10;;;;;;;1.11;89.70;99631.15;103383;1317;99674;-58
2022/12/10 07:59:05;;;;;;;54.20;26.60;;;;;;;1.10;89.78;99627.99;103582;1314;88074;-59
2022/12/10 08:01:39;;;;;;;49.60;25.50;;;;;;;1.14;89.78;99615.54;103339;1317;94129;-59
2022/12/10 08:04:13;;;;;;;49.70;23.00;;;;;;;1.11;89.81;99616.30;103346;1317;80626;-62
2022/12/10 08:06:47;;;;;;;50.40;24.60;;;;;;;1.11;89.80;99616.54;103350;1314;83027;-61
2022/12/10 08:09:22;;;;;;;44.30;23.70;;;;;;;1.16;89.78;99614.31;103566;1317;99257;-59
2022/12/10 08:11:56;;;;;;;43.70;22.30;;;;;;;1.17;89.90;99615.27;103211;1316;90158;-59
2022/12/10 08:14:31;;;;;;;43.50;21.30;;;;;;;1.17;89.74;99614.41;103348;1313;95025;-59
2022/12/10 08:17:06;;;;;;;40.50;19.80;;;;;;;1.16;89.87;99617.55;103338;1316;79272;-59
2022/12/10 08:19:40;;;;;;;43.20;22.10;;;;;;;1.16;89.87;99612.70;103360;1314;83298;-58
2022/12/10 08:22:14;;;;;;;42.00;20.70;;;;;;;1.15;89.73;99616.88;103350;1317;100143;-58
2022/12/10 08:24:49;;;;;;;42.50;22.60;;;;;;;1.16;89.78;99617.16;103367;1317;89469;-58
2022/12/10 08:27:24;;;;;;;44.00;21.90;;;;;;;1.21;89.73;99618.96;103429;1315;93960;-57
2022/12/10 08:30:00;;;;;;;48.20;25.80;;;;;;;1.27;89.73;99614.86;103371;1317;81706;-60
2022/12/10 08:32:35;;;;;;;45.00;23.90;;;;;;;1.28;89.80;99613.03;103366;1317;83396;-60
2022/12/10 08:35:12;;;;;;;41.50;21.80;;;;;;;1.31;89.84;99612.40;103563;1314;98599;-58
2022/12/10 08:37:49;;;;;;;45.90;23.80;;;;;;;1.33;89.74;99610.87;103375;1317;88825;-58
2022/12/10 08:40:25;;;;;;;52.00;27.50;;;;;;;1.36;89.71;99611.31;103548;1314;93749;-58
2022/12/10 08:43:00;;;;;;;48.40;25.60;;;;;;;1.39;89.73;99610.52;103371;1317;81513;-59
2022/12/10 08:45:34;;;;;;;37.60;19.60;;;;;;;1.39;89.72;99609.89;103356;1317;82995;-59
2022/12/10 08:48:10;;;;;;;42.50;20.20;;;;;;;1.42;89.81;99611.81;103339;1314;98492;-58
2022/12/10 08:50:45;;;;;;;38.80;19.20;;;;;;;1.46;89.58;99617.98;103552;1317;86656;-60
2022/12/10 08:53:19;;;;;;;36.70;19.80;;;;;;;1.46;89.63;99618.14;103315;1317;95406;-57
2022/12/10 08:55:55;;;;;;;39.00;19.70;;;;;;;1.47;89.73;99620.46;103342;1313;81365;-57
2022/12/10 08:58:30;;;;;;;38.30;20.60;;;;;;;1.50;89.53;99618.77;103360;1317;81770;-57
2022/12/10 09:01:11;;;;;;;40.00;19.30;;;;;;;1.49;89.68;99621.71;103387;1317;98029;-58
2022/12/10 09:03:46;;;;;;;37.80;19.60;;;;;;;1.50;89.51;99623.55;103578;1317;89100;-58
2022/12/10 09:06:24;;;;;;;37.90;18.60;;;;;;;1.51;89.73;99622.09;103543;1318;93328;-58
2022/12/10 09:08:59;;;;;;;40.30;20.30;;;;;;;1.51;89.74;99624.21;103373;1317;79599;-57
2022/12/10 09:11:36;;;;;;;38.40;19.60;;;;;;;1.50;89.59;99623.15;103207;1318;84614;-57
2022/12/10 09:14:10;;;;;;;35.50;18.10;;;;;;;1.52;89.75;99624.23;103365;1314;98868;-57
2022/12/10 09:16:45;;;;;;;37.70;19.70;;;;;;;1.50;89.70;99629.20;103312;1318;88786;-57
2022/12/10 09:19:18;;;;;;;;;;;;;;;1.51;89.70;99636.77;103380;1317;94705;-58
2022/12/10 09:21:52;;;;;;;35.40;17.90;;;;;;;1.53;89.64;99638.71;103537;1317;78904;-58
2022/12/10 09:24:26;;;;;;;37.70;18.30;;;;;;;1.56;89.73;99636.42;103313;1317;81824;-61
2022/12/10 09:27:01;;;;;;;39.80;19.10;;;;;;;1.61;89.61;99639.00;103351;1317;99482;-60
2022/12/10 09:29:37;;;;;;;37.90;18.90;;;;;;;1.64;89.63;99642.78;103586;1317;88036;-60
2022/12/10 09:32:12;;;;;;;36.70;19.50;;;;;;;1.66;89.53;99641.52;103586;1314;94718;-60
2022/12/10 09:34:45;;;;;;;38.60;18.30;;;;;;;1.64;89.61;99636.23;103352;1317;78402;-59
2022/12/10 09:37:20;;;;;;;36.00;18.60;;;;;;;1.61;89.70;99634.54;103378;1317;83472;-58
2022/12/10 09:39:52;;;;;;;;;;;;;;;1.57;89.70;99629.44;103378;1313;98241;-58
2022/12/10 09:42:41;;;;;;;36.40;18.10;;;;;;;1.56;89.63;99623.31;103371;1313;88727;-58
2022/12/10 09:45:26;;;;;;;39.30;20.10;;;;;;;1.53;89.62;99621.30;103549;1314;92892;-61
2022/12/10 09:48:09;;;;;;;38.30;20.30;;;;;;;1.55;89.61;99624.30;103564;1317;80069;-59
2022/12/10 09:50:59;;;;;;;38.10;18.70;;;;;;;1.55;89.45;99622.00;103335;1316;83142;-66
2022/12/10 09:53:33;;;;;;;38.70;20.30;;;;;;;1.50;89.47;99620.92;103393;1317;100117;-61
2022/12/10 09:56:17;;;;;;;36.80;18.10;;;;;;;1.50;89.57;99625.31;103380;1313;88900;-61
2022/12/10 09:58:51;;;;;;;40.60;18.80;;;;;;;1.56;89.64;99626.54;103347;1317;95005;-57
2022/12/10 10:01:32;;;;;;;38.90;19.50;;;;;;;1.61;89.72;99625.25;103368;1315;81343;-58
2022/12/10 10:04:10;;;;;;;41.80;18.60;;;;;;;1.68;89.56;99633.17;103581;1317;80487;-61
2022/12/10 10:06:45;;;;;;;38.30;18.80;;;;;;;1.74;89.65;99642.27;103400;1313;98323;-61
2022/12/10 10:09:22;;;;;;;35.60;18.20;;;;;;;1.73;89.64;99645.77;103578;1317;87905;-57
2022/12/10 10:11:58;;;;;;;35.30;19.20;;;;;;;1.74;89.66;99646.73;103351;1317;94508;-58
2022/12/10 10:14:33;;;;;;;38.80;19.40;;;;;;;1.82;89.55;99648.61;103343;1313;81993;-58
2022/12/10 10:17:15;;;;;;;32.60;17.00;;;;;;;1.83;89.40;99645.52;103570;1317;81423;-58
2022/12/10 10:19:53;;;;;;;39.00;18.20;;;;;;;1.76;89.42;99640.59;103337;1317;99388;-58
2022/12/10 10:22:27;;;;;;;38.20;20.30;;;;;;;1.81;89.43;99637.02;103359;1317;88817;-58
2022/12/10 10:25:02;;;;;;;37.70;20.00;;;;;;;1.83;89.59;99640.57;103350;1317;93325;-60
2022/12/10 10:27:37;;;;;;;39.00;19.40;;;;;;;1.83;89.56;99645.10;103566;1317;79153;-60
2022/12/10 10:30:23;;;;;;;36.00;19.90;;;;;;;1.79;89.43;99642.27;103361;1316;83267;-61
2022/12/10 10:33:03;;;;;;;42.30;20.20;;;;;;;1.83;89.56;99640.67;103380;1314;100048;-60
2022/12/10 10:35:47;;;;;;;39.10;19.10;;;;;;;1.90;89.40;99639.11;103207;1320;88012;-58
2022/12/10 10:38:27;;;;;;;38.00;18.70;;;;;;;1.94;89.47;99635.29;103372;1317;95584;-61
2022/12/10 10:41:05;;;;;;;44.60;22.20;;;;;;;1.96;89.29;99632.48;103371;1317;80218;-62
2022/12/10 10:43:47;;;;;;;39.40;20.10;;;;;;;1.96;89.44;99631.04;103395;1317;82551;-58
2022/12/10 10:46:25;;;;;;;37.60;18.60;;;;;;;1.85;89.49;99625.71;103563;1317;98823;-59
2022/12/10 10:49:27;;;;;;;36.00;18.90;;;;;;;1.82;89.56;99617.59;103379;1317;88328;-58
2022/12/10 10:52:14;;;;;;;36.30;18.30;;;;;;;1.84;89.27;99613.15;103318;1317;95069;-61
2022/12/10 10:54:51;;;;;;;38.00;18.10;;;;;;;1.83;89.24;99606.75;103343;1317;81588;-60
2022/12/10 10:57:30;;;;;;;36.90;18.70;;;;;;;1.92;89.23;99598.25;103345;1317;82384;-60
2022/12/10 11:00:19;;;;;;;42.70;19.20;;;;;;;1.93;89.15;99596.91;103367;1317;99495;-61
2022/12/10 11:02:54;;;;;;;37.40;17.40;;;;;;;1.90;89.40;99594.55;103380;1317;87829;-60
2022/12/10 11:05:33;;;;;;;38.90;20.10;;;;;;;1.97;89.26;99592.27;103360;1314;95870;-59
2022/12/10 11:08:22;;;;;;;40.30;20.70;;;;;;;1.92;89.34;99591.09;103199;1317;81031;-60
2022/12/10 11:11:05;;;;;;;35.00;18.90;;;;;;;1.96;89.28;99585.92;103387;1313;80670;-61
2022/12/10 11:13:41;;;;;;;37.10;18.30;;;;;;;2.04;89.18;99586.16;103380;1317;97348;-60
2022/12/10 11:16:24;;;;;;;35.90;18.50;;;;;;;2.02;89.31;99582.61;103389;1317;88802;-60
2022/12/10 11:19:04;;;;;;;41.70;19.80;;;;;;;2.06;89.30;99580.25;103386;1315;93117;-57
2022/12/10 11:21:40;;;;;;;39.50;19.60;;;;;;;2.12;89.23;99584.83;103353;1317;81514;-58
2022/12/10 11:24:19;;;;;;;45.40;23.20;;;;;;;2.16;89.38;99585.29;103390;1317;83024;-61
2022/12/10 11:27:08;;;;;;;44.70;19.40;;;;;;;2.13;89.16;99581.48;103369;1313;99930;-61
2022/12/10 11:29:57;;;;;;;42.10;20.00;;;;;;;2.14;89.26;99579.86;103388;1317;87270;-61
2022/12/10 11:33:18;;;;;;;46.70;24.00;;;;;;;2.14;89.21;99577.83;103551;1318;94925;-60
2022/12/10 11:36:08;;;;;;;40.20;19.20;;;;;;;2.12;88.85;99575.45;103191;1317;79899;-58
2022/12/10 11:38:51;;;;;;;43.40;20.40;;;;;;;2.06;88.89;99573.88;103557;1317;80945;-60
2022/12/10 11:41:36;;;;;;;41.50;20.30;;;;;;;2.00;88.91;99574.63;103353;1317;98489;-60
2022/12/10 11:44:26;;;;;;;42.20;19.50;;;;;;;1.94;88.79;99574.05;103234;1316;88717;-60
2022/12/10 11:47:37;;;;;;;43.80;20.20;;;;;;;1.91;88.84;99578.66;103548;1317;92487;-60
2022/12/10 11:50:26;;;;;;;48.40;21.50;;;;;;;1.82;88.97;99577.57;103344;1314;81053;-60
2022/12/10 11:53:27;;;;;;;47.40;20.70;;;;;;;1.81;88.91;99580.69;103371;1317;82271;-60
2022/12/10 11:56:12;;;;;;;44.10;21.50;;;;;;;1.71;88.84;99579.95;103381;1313;98599;-60
2022/12/10 11:59:03;;;;;;;45.50;19.50;;;;;;;1.72;88.91;99578.91;103379;1313;88485;-58
2022/12/10 12:01:56;;;;;;;46.90;19.70;;;;;;;1.67;88.90;99583.48;103329;1313;94794;-58
2022/12/10 12:04:47;;;;;;;46.10;20.10;;;;;;;1.70;88.81;99588.37;103363;1317;80534;-60
2022/12/10 12:07:39;;;;;;;37.60;18.60;;;;;;;1.74;88.94;99590.64;103355;1317;81741;-60
2022/12/10 12:11:11;;;;;;;38.60;18.60;;;;;;;1.78;88.74;99587.16;103346;1317;98038;-60
2022/12/10 12:13:57;;;;;;;44.30;19.70;;;;;;;1.79;88.72;99595.08;102939;1326;87150;-58
2022/12/10 12:16:36;;;;;;;34.80;16.20;;;;;;;1.81;88.73;99599.39;103274;1317;95386;-58
2022/12/10 12:19:18;;;;;;;30.60;15.40;;;;;;;1.78;88.81;99604.40;103345;1313;81447;-58